sensor_id;sensor_type;location;lat;lon;timestamp;P1;durP1;ratioP1;P2;durP2;ratioP2
73599;SDS011;61877;48.246;9.220;2023-07-16T00:00:24;13.77;;;7.65;;
73599;SDS011;61877;48.246;9.220;2023-07-16T00:02:50;12.87;;;7.70;;
73599;SDS011;61877;48.246;9.220;2023-07-16T00:05:15;13.03;;;7.33;;
73599;SDS011;61877;48.246;9.220;2023-07-16T00:07:42;12.18;;;6.78;;
73599;SDS011;61877;48.246;9.220;2023-07-16T00:10:08;10.20;;;6.20;;
73599;SDS011;61877;48.246;9.220;2023-07-16T00:12:35;10.68;;;5.80;;
73599;SDS011;61877;48.246;9.220;2023-07-16T00:15:01;11.03;;;5.90;;
73599;SDS011;61877;48.246;9.220;2023-07-16T00:17:26;9.07;;;5.50;;
73599;SDS011;61877;48.246;9.220;2023-07-16T00:19:55;10.13;;;4.50;;
73599;SDS011;61877;48.246;9.220;2023-07-16T00:22:21;6.60;;;3.00;;
73599;SDS011;61877;48.246;9.220;2023-07-16T00:24:48;6.47;;;2.40;;
73599;SDS011;61877;48.246;9.220;2023-07-16T00:27:13;6.18;;;2.13;;
73599;SDS011;61877;48.246;9.220;2023-07-16T00:29:40;6.63;;;2.60;;
73599;SDS011;61877;48.246;9.220;2023-07-16T00:32:05;6.43;;;1.73;;
73599;SDS011;61877;48.246;9.220;2023-07-16T00:34:31;5.32;;;1.80;;
73599;SDS011;61877;48.246;9.220;2023-07-16T00:36:57;5.67;;;1.90;;
73599;SDS011;61877;48.246;9.220;2023-07-16T00:39:22;5.50;;;1.67;;
73599;SDS011;61877;48.246;9.220;2023-07-16T00:41:49;5.27;;;1.70;;
73599;SDS011;61877;48.246;9.220;2023-07-16T00:44:15;5.40;;;1.70;;
73599;SDS011;61877;48.246;9.220;2023-07-16T00:46:41;6.30;;;1.80;;
73599;SDS011;61877;48.246;9.220;2023-07-16T00:49:06;6.40;;;1.67;;
73599;SDS011;61877;48.246;9.220;2023-07-16T00:51:32;5.43;;;1.80;;
73599;SDS011;61877;48.246;9.220;2023-07-16T00:53:58;5.60;;;1.58;;
73599;SDS011;61877;48.246;9.220;2023-07-16T00:56:24;5.78;;;1.60;;
73599;SDS011;61877;48.246;9.220;2023-07-16T00:58:51;6.50;;;1.58;;
73599;SDS011;61877;48.246;9.220;2023-07-16T01:01:17;5.37;;;1.60;;
73599;SDS011;61877;48.246;9.220;2023-07-16T01:03:42;5.30;;;1.77;;
73599;SDS011;61877;48.246;9.220;2023-07-16T01:06:10;5.50;;;1.70;;
73599;SDS011;61877;48.246;9.220;2023-07-16T01:08:40;5.22;;;1.60;;
73599;SDS011;61877;48.246;9.220;2023-07-16T01:11:09;6.20;;;1.65;;
73599;SDS011;61877;48.246;9.220;2023-07-16T01:13:35;5.40;;;1.90;;
73599;SDS011;61877;48.246;9.220;2023-07-16T01:16:02;6.43;;;2.00;;
73599;SDS011;61877;48.246;9.220;2023-07-16T01:18:28;5.32;;;1.65;;
73599;SDS011;61877;48.246;9.220;2023-07-16T01:20:53;5.85;;;1.80;;
73599;SDS011;61877;48.246;9.220;2023-07-16T01:23:26;6.03;;;1.50;;
73599;SDS011;61877;48.246;9.220;2023-07-16T01:26:10;6.20;;;1.70;;
73599;SDS011;61877;48.246;9.220;2023-07-16T01:31:49;6.57;;;1.80;;
73599;SDS011;61877;48.246;9.220;2023-07-16T01:34:16;6.45;;;2.00;;
73599;SDS011;61877;48.246;9.220;2023-07-16T01:36:42;6.03;;;1.90;;
73599;SDS011;61877;48.246;9.220;2023-07-16T01:39:09;5.40;;;1.90;;
73599;SDS011;61877;48.246;9.220;2023-07-16T01:41:37;7.00;;;1.80;;
73599;SDS011;61877;48.246;9.220;2023-07-16T01:44:03;6.30;;;2.00;;
73599;SDS011;61877;48.246;9.220;2023-07-16T01:46:31;6.03;;;1.83;;
73599;SDS011;61877;48.246;9.220;2023-07-16T01:48:57;6.00;;;1.60;;
73599;SDS011;61877;48.246;9.220;2023-07-16T01:51:22;5.80;;;2.00;;
73599;SDS011;61877;48.246;9.220;2023-07-16T01:53:48;6.30;;;1.65;;
73599;SDS011;61877;48.246;9.220;2023-07-16T01:56:13;5.70;;;1.97;;
73599;SDS011;61877;48.246;9.220;2023-07-16T01:58:41;5.60;;;1.60;;
73599;SDS011;61877;48.246;9.220;2023-07-16T02:01:07;6.95;;;2.05;;
73599;SDS011;61877;48.246;9.220;2023-07-16T02:03:33;6.73;;;1.70;;
73599;SDS011;61877;48.246;9.220;2023-07-16T02:05:59;7.28;;;1.90;;
73599;SDS011;61877;48.246;9.220;2023-07-16T02:08:24;5.70;;;1.70;;
73599;SDS011;61877;48.246;9.220;2023-07-16T02:10:52;5.63;;;1.83;;
73599;SDS011;61877;48.246;9.220;2023-07-16T02:13:17;6.57;;;2.10;;
73599;SDS011;61877;48.246;9.220;2023-07-16T02:15:44;6.30;;;2.00;;
73599;SDS011;61877;48.246;9.220;2023-07-16T02:18:09;7.10;;;1.95;;
73599;SDS011;61877;48.246;9.220;2023-07-16T02:20:37;6.60;;;1.70;;
73599;SDS011;61877;48.246;9.220;2023-07-16T02:23:02;5.80;;;1.92;;
73599;SDS011;61877;48.246;9.220;2023-07-16T02:25:29;6.20;;;1.87;;
73599;SDS011;61877;48.246;9.220;2023-07-16T02:27:55;5.53;;;1.90;;
73599;SDS011;61877;48.246;9.220;2023-07-16T02:30:20;5.93;;;1.80;;
73599;SDS011;61877;48.246;9.220;2023-07-16T02:32:46;8.37;;;2.07;;
73599;SDS011;61877;48.246;9.220;2023-07-16T02:35:11;6.23;;;1.90;;
73599;SDS011;61877;48.246;9.220;2023-07-16T02:37:38;6.80;;;1.90;;
73599;SDS011;61877;48.246;9.220;2023-07-16T02:40:05;6.55;;;2.00;;
73599;SDS011;61877;48.246;9.220;2023-07-16T02:42:32;6.07;;;1.90;;
73599;SDS011;61877;48.246;9.220;2023-07-16T02:44:58;7.15;;;2.10;;
73599;SDS011;61877;48.246;9.220;2023-07-16T02:47:23;5.87;;;1.93;;
73599;SDS011;61877;48.246;9.220;2023-07-16T02:49:50;7.00;;;2.00;;
73599;SDS011;61877;48.246;9.220;2023-07-16T02:52:19;6.27;;;2.10;;
73599;SDS011;61877;48.246;9.220;2023-07-16T02:54:49;6.55;;;2.20;;
73599;SDS011;61877;48.246;9.220;2023-07-16T02:57:14;6.53;;;2.03;;
73599;SDS011;61877;48.246;9.220;2023-07-16T02:59:40;6.27;;;2.33;;
73599;SDS011;61877;48.246;9.220;2023-07-16T03:02:05;7.10;;;2.00;;
73599;SDS011;61877;48.246;9.220;2023-07-16T03:04:31;7.83;;;1.87;;
73599;SDS011;61877;48.246;9.220;2023-07-16T03:06:56;6.30;;;1.90;;
73599;SDS011;61877;48.246;9.220;2023-07-16T03:09:22;7.33;;;2.00;;
73599;SDS011;61877;48.246;9.220;2023-07-16T03:11:49;7.20;;;2.00;;
73599;SDS011;61877;48.246;9.220;2023-07-16T03:14:14;6.45;;;1.85;;
73599;SDS011;61877;48.246;9.220;2023-07-16T03:16:40;6.67;;;2.07;;
73599;SDS011;61877;48.246;9.220;2023-07-16T03:19:06;6.85;;;1.98;;
73599;SDS011;61877;48.246;9.220;2023-07-16T03:21:32;6.40;;;2.20;;
73599;SDS011;61877;48.246;9.220;2023-07-16T03:24:00;8.45;;;2.30;;
73599;SDS011;61877;48.246;9.220;2023-07-16T03:26:26;6.63;;;2.22;;
73599;SDS011;61877;48.246;9.220;2023-07-16T03:28:53;6.43;;;2.30;;
73599;SDS011;61877;48.246;9.220;2023-07-16T03:31:18;6.25;;;2.03;;
73599;SDS011;61877;48.246;9.220;2023-07-16T03:33:44;7.63;;;1.90;;
73599;SDS011;61877;48.246;9.220;2023-07-16T03:36:09;5.72;;;1.95;;
73599;SDS011;61877;48.246;9.220;2023-07-16T03:38:37;6.67;;;2.10;;
73599;SDS011;61877;48.246;9.220;2023-07-16T03:41:02;6.53;;;2.10;;
73599;SDS011;61877;48.246;9.220;2023-07-16T03:43:28;5.67;;;1.87;;
73599;SDS011;61877;48.246;9.220;2023-07-16T03:45:58;6.22;;;2.03;;
73599;SDS011;61877;48.246;9.220;2023-07-16T03:48:24;6.10;;;2.03;;
73599;SDS011;61877;48.246;9.220;2023-07-16T03:50:49;8.57;;;2.30;;
73599;SDS011;61877;48.246;9.220;2023-07-16T03:53:17;6.25;;;2.00;;
73599;SDS011;61877;48.246;9.220;2023-07-16T03:55:47;6.73;;;2.10;;
73599;SDS011;61877;48.246;9.220;2023-07-16T03:58:21;6.55;;;2.30;;
73599;SDS011;61877;48.246;9.220;2023-07-16T04:00:46;5.80;;;1.95;;
73599;SDS011;61877;48.246;9.220;2023-07-16T04:03:21;6.03;;;2.20;;
73599;SDS011;61877;48.246;9.220;2023-07-16T04:05:52;7.15;;;2.30;;
73599;SDS011;61877;48.246;9.220;2023-07-16T04:08:30;7.73;;;1.80;;
73599;SDS011;61877;48.246;9.220;2023-07-16T04:10:58;6.63;;;1.90;;
73599;SDS011;61877;48.246;9.220;2023-07-16T04:13:24;6.35;;;1.88;;
73599;SDS011;61877;48.246;9.220;2023-07-16T04:15:50;7.13;;;2.00;;
73599;SDS011;61877;48.246;9.220;2023-07-16T04:18:15;5.63;;;1.92;;
73599;SDS011;61877;48.246;9.220;2023-07-16T04:20:42;5.80;;;2.20;;
73599;SDS011;61877;48.246;9.220;2023-07-16T04:23:08;8.10;;;2.05;;
73599;SDS011;61877;48.246;9.220;2023-07-16T04:25:42;5.80;;;2.00;;
73599;SDS011;61877;48.246;9.220;2023-07-16T04:28:09;7.30;;;2.13;;
73599;SDS011;61877;48.246;9.220;2023-07-16T04:30:34;6.60;;;2.35;;
73599;SDS011;61877;48.246;9.220;2023-07-16T04:33:00;7.40;;;2.10;;
73599;SDS011;61877;48.246;9.220;2023-07-16T04:35:34;6.03;;;2.07;;
73599;SDS011;61877;48.246;9.220;2023-07-16T04:38:02;8.07;;;2.17;;
73599;SDS011;61877;48.246;9.220;2023-07-16T04:40:30;6.43;;;2.25;;
73599;SDS011;61877;48.246;9.220;2023-07-16T04:42:57;6.50;;;2.58;;
73599;SDS011;61877;48.246;9.220;2023-07-16T04:45:22;7.33;;;2.23;;
73599;SDS011;61877;48.246;9.220;2023-07-16T04:47:48;7.22;;;2.25;;
73599;SDS011;61877;48.246;9.220;2023-07-16T04:50:15;6.90;;;2.45;;
73599;SDS011;61877;48.246;9.220;2023-07-16T04:52:42;6.57;;;2.10;;
73599;SDS011;61877;48.246;9.220;2023-07-16T04:55:21;7.70;;;2.38;;
73599;SDS011;61877;48.246;9.220;2023-07-16T04:57:49;6.90;;;2.40;;
73599;SDS011;61877;48.246;9.220;2023-07-16T05:00:20;7.33;;;2.20;;
73599;SDS011;61877;48.246;9.220;2023-07-16T05:02:53;7.25;;;2.47;;
73599;SDS011;61877;48.246;9.220;2023-07-16T05:05:19;6.10;;;2.20;;
73599;SDS011;61877;48.246;9.220;2023-07-16T05:07:45;6.97;;;2.27;;
73599;SDS011;61877;48.246;9.220;2023-07-16T05:10:11;6.97;;;2.30;;
73599;SDS011;61877;48.246;9.220;2023-07-16T05:12:42;6.10;;;2.30;;
73599;SDS011;61877;48.246;9.220;2023-07-16T05:15:11;6.57;;;2.42;;
73599;SDS011;61877;48.246;9.220;2023-07-16T05:17:39;7.03;;;2.30;;
73599;SDS011;61877;48.246;9.220;2023-07-16T05:20:06;6.57;;;2.42;;
73599;SDS011;61877;48.246;9.220;2023-07-16T05:22:32;7.50;;;2.30;;
73599;SDS011;61877;48.246;9.220;2023-07-16T05:25:02;5.93;;;2.30;;
73599;SDS011;61877;48.246;9.220;2023-07-16T05:27:28;5.73;;;2.33;;
73599;SDS011;61877;48.246;9.220;2023-07-16T05:29:55;6.00;;;2.30;;
73599;SDS011;61877;48.246;9.220;2023-07-16T05:32:26;7.00;;;1.90;;
73599;SDS011;61877;48.246;9.220;2023-07-16T05:34:52;6.80;;;2.20;;
73599;SDS011;61877;48.246;9.220;2023-07-16T05:37:17;6.67;;;2.50;;
73599;SDS011;61877;48.246;9.220;2023-07-16T05:39:43;6.00;;;2.25;;
73599;SDS011;61877;48.246;9.220;2023-07-16T05:42:18;6.10;;;2.13;;
73599;SDS011;61877;48.246;9.220;2023-07-16T05:44:47;6.60;;;2.00;;
73599;SDS011;61877;48.246;9.220;2023-07-16T05:47:37;6.78;;;2.30;;
73599;SDS011;61877;48.246;9.220;2023-07-16T05:50:04;6.80;;;2.10;;
73599;SDS011;61877;48.246;9.220;2023-07-16T05:52:31;7.43;;;2.30;;
73599;SDS011;61877;48.246;9.220;2023-07-16T05:55:00;8.85;;;2.63;;
73599;SDS011;61877;48.246;9.220;2023-07-16T05:57:27;6.57;;;2.17;;
73599;SDS011;61877;48.246;9.220;2023-07-16T05:59:52;6.40;;;2.30;;
73599;SDS011;61877;48.246;9.220;2023-07-16T06:02:21;6.07;;;2.13;;
73599;SDS011;61877;48.246;9.220;2023-07-16T06:04:49;6.05;;;2.40;;
73599;SDS011;61877;48.246;9.220;2023-07-16T06:07:17;8.65;;;2.42;;
73599;SDS011;61877;48.246;9.220;2023-07-16T06:09:46;5.90;;;2.23;;
73599;SDS011;61877;48.246;9.220;2023-07-16T06:12:25;6.07;;;2.25;;
73599;SDS011;61877;48.246;9.220;2023-07-16T06:14:54;6.63;;;2.30;;
73599;SDS011;61877;48.246;9.220;2023-07-16T06:17:22;7.40;;;2.10;;
73599;SDS011;61877;48.246;9.220;2023-07-16T06:19:49;7.93;;;2.20;;
73599;SDS011;61877;48.246;9.220;2023-07-16T06:22:16;6.72;;;2.30;;
73599;SDS011;61877;48.246;9.220;2023-07-16T06:24:42;6.65;;;2.22;;
73599;SDS011;61877;48.246;9.220;2023-07-16T06:27:08;6.80;;;2.10;;
73599;SDS011;61877;48.246;9.220;2023-07-16T06:29:34;7.25;;;2.40;;
73599;SDS011;61877;48.246;9.220;2023-07-16T06:32:02;6.72;;;2.50;;
73599;SDS011;61877;48.246;9.220;2023-07-16T06:34:32;6.18;;;2.40;;
73599;SDS011;61877;48.246;9.220;2023-07-16T06:37:07;6.40;;;2.27;;
73599;SDS011;61877;48.246;9.220;2023-07-16T06:39:33;7.40;;;2.20;;
73599;SDS011;61877;48.246;9.220;2023-07-16T06:41:59;6.07;;;2.30;;
73599;SDS011;61877;48.246;9.220;2023-07-16T06:44:26;8.50;;;2.40;;
73599;SDS011;61877;48.246;9.220;2023-07-16T06:46:51;6.30;;;2.47;;
73599;SDS011;61877;48.246;9.220;2023-07-16T06:49:18;6.50;;;2.23;;
73599;SDS011;61877;48.246;9.220;2023-07-16T06:51:49;6.20;;;2.30;;
73599;SDS011;61877;48.246;9.220;2023-07-16T06:54:17;7.10;;;2.65;;
73599;SDS011;61877;48.246;9.220;2023-07-16T06:56:43;6.32;;;2.20;;
73599;SDS011;61877;48.246;9.220;2023-07-16T06:59:09;6.25;;;2.20;;
73599;SDS011;61877;48.246;9.220;2023-07-16T07:01:34;6.47;;;2.17;;
73599;SDS011;61877;48.246;9.220;2023-07-16T07:04:03;6.55;;;2.20;;
73599;SDS011;61877;48.246;9.220;2023-07-16T07:06:32;5.77;;;2.13;;
73599;SDS011;61877;48.246;9.220;2023-07-16T07:08:57;8.75;;;2.30;;
73599;SDS011;61877;48.246;9.220;2023-07-16T07:11:36;6.10;;;2.30;;
73599;SDS011;61877;48.246;9.220;2023-07-16T07:14:01;6.72;;;2.35;;
73599;SDS011;61877;48.246;9.220;2023-07-16T07:16:26;6.77;;;2.17;;
73599;SDS011;61877;48.246;9.220;2023-07-16T07:18:52;6.93;;;2.30;;
73599;SDS011;61877;48.246;9.220;2023-07-16T07:21:17;7.30;;;2.20;;
73599;SDS011;61877;48.246;9.220;2023-07-16T07:23:46;6.60;;;2.13;;
73599;SDS011;61877;48.246;9.220;2023-07-16T07:26:12;6.35;;;2.10;;
73599;SDS011;61877;48.246;9.220;2023-07-16T07:28:40;6.38;;;2.28;;
73599;SDS011;61877;48.246;9.220;2023-07-16T07:31:06;5.97;;;2.00;;
73599;SDS011;61877;48.246;9.220;2023-07-16T07:33:32;7.18;;;2.10;;
73599;SDS011;61877;48.246;9.220;2023-07-16T07:35:57;5.77;;;2.10;;
73599;SDS011;61877;48.246;9.220;2023-07-16T07:38:23;6.25;;;2.10;;
73599;SDS011;61877;48.246;9.220;2023-07-16T07:40:50;6.73;;;2.20;;
73599;SDS011;61877;48.246;9.220;2023-07-16T07:43:19;6.43;;;2.20;;
73599;SDS011;61877;48.246;9.220;2023-07-16T07:45:55;5.80;;;2.00;;
73599;SDS011;61877;48.246;9.220;2023-07-16T07:48:20;7.03;;;2.20;;
73599;SDS011;61877;48.246;9.220;2023-07-16T07:50:52;5.80;;;2.10;;
73599;SDS011;61877;48.246;9.220;2023-07-16T07:53:17;7.43;;;2.20;;
73599;SDS011;61877;48.246;9.220;2023-07-16T07:55:43;6.43;;;2.60;;
73599;SDS011;61877;48.246;9.220;2023-07-16T07:58:11;6.10;;;2.25;;
73599;SDS011;61877;48.246;9.220;2023-07-16T08:00:37;6.72;;;2.35;;
73599;SDS011;61877;48.246;9.220;2023-07-16T08:03:04;6.23;;;2.43;;
73599;SDS011;61877;48.246;9.220;2023-07-16T08:05:29;6.05;;;2.30;;
73599;SDS011;61877;48.246;9.220;2023-07-16T08:07:55;6.37;;;1.90;;
73599;SDS011;61877;48.246;9.220;2023-07-16T08:10:21;6.10;;;2.10;;
73599;SDS011;61877;48.246;9.220;2023-07-16T08:12:47;6.70;;;2.00;;
73599;SDS011;61877;48.246;9.220;2023-07-16T08:15:12;6.60;;;2.20;;
73599;SDS011;61877;48.246;9.220;2023-07-16T08:20:20;7.03;;;2.00;;
73599;SDS011;61877;48.246;9.220;2023-07-16T08:22:46;6.87;;;2.20;;
73599;SDS011;61877;48.246;9.220;2023-07-16T08:25:11;7.53;;;2.00;;
73599;SDS011;61877;48.246;9.220;2023-07-16T08:27:40;6.20;;;2.17;;
73599;SDS011;61877;48.246;9.220;2023-07-16T08:30:06;6.10;;;2.10;;
73599;SDS011;61877;48.246;9.220;2023-07-16T08:32:32;6.35;;;1.90;;
73599;SDS011;61877;48.246;9.220;2023-07-16T08:34:59;6.47;;;2.10;;
73599;SDS011;61877;48.246;9.220;2023-07-16T08:37:28;6.40;;;2.00;;
73599;SDS011;61877;48.246;9.220;2023-07-16T08:39:54;5.60;;;1.95;;
73599;SDS011;61877;48.246;9.220;2023-07-16T08:42:23;6.10;;;2.20;;
73599;SDS011;61877;48.246;9.220;2023-07-16T08:44:56;5.85;;;2.05;;
73599;SDS011;61877;48.246;9.220;2023-07-16T08:47:21;5.85;;;2.00;;
73599;SDS011;61877;48.246;9.220;2023-07-16T08:49:52;6.17;;;2.07;;
73599;SDS011;61877;48.246;9.220;2023-07-16T08:52:22;6.40;;;2.20;;
73599;SDS011;61877;48.246;9.220;2023-07-16T08:54:53;7.10;;;2.08;;
73599;SDS011;61877;48.246;9.220;2023-07-16T08:57:19;6.65;;;2.00;;
73599;SDS011;61877;48.246;9.220;2023-07-16T08:59:46;6.03;;;2.10;;
73599;SDS011;61877;48.246;9.220;2023-07-16T09:02:16;6.13;;;2.08;;
73599;SDS011;61877;48.246;9.220;2023-07-16T09:04:42;6.13;;;1.97;;
73599;SDS011;61877;48.246;9.220;2023-07-16T09:07:11;7.23;;;2.30;;
73599;SDS011;61877;48.246;9.220;2023-07-16T09:09:36;5.70;;;1.90;;
73599;SDS011;61877;48.246;9.220;2023-07-16T09:12:04;5.78;;;2.25;;
73599;SDS011;61877;48.246;9.220;2023-07-16T09:14:34;6.57;;;2.17;;
73599;SDS011;61877;48.246;9.220;2023-07-16T09:16:59;7.15;;;1.90;;
73599;SDS011;61877;48.246;9.220;2023-07-16T09:19:27;7.38;;;2.00;;
73599;SDS011;61877;48.246;9.220;2023-07-16T09:21:57;6.10;;;2.10;;
73599;SDS011;61877;48.246;9.220;2023-07-16T09:24:22;6.53;;;1.97;;
73599;SDS011;61877;48.246;9.220;2023-07-16T09:26:48;6.13;;;1.90;;
73599;SDS011;61877;48.246;9.220;2023-07-16T09:29:15;6.88;;;2.28;;
73599;SDS011;61877;48.246;9.220;2023-07-16T09:31:50;7.45;;;2.10;;
73599;SDS011;61877;48.246;9.220;2023-07-16T09:34:19;6.70;;;2.10;;
73599;SDS011;61877;48.246;9.220;2023-07-16T09:36:46;6.03;;;2.15;;
73599;SDS011;61877;48.246;9.220;2023-07-16T09:39:12;8.13;;;2.10;;
73599;SDS011;61877;48.246;9.220;2023-07-16T09:41:39;5.95;;;2.17;;
73599;SDS011;61877;48.246;9.220;2023-07-16T09:44:06;6.72;;;2.35;;
73599;SDS011;61877;48.246;9.220;2023-07-16T09:46:37;6.57;;;2.10;;
73599;SDS011;61877;48.246;9.220;2023-07-16T09:49:08;6.00;;;2.08;;
73599;SDS011;61877;48.246;9.220;2023-07-16T09:51:34;5.87;;;2.20;;
73599;SDS011;61877;48.246;9.220;2023-07-16T09:54:01;6.05;;;2.28;;
73599;SDS011;61877;48.246;9.220;2023-07-16T09:56:29;6.40;;;2.58;;
73599;SDS011;61877;48.246;9.220;2023-07-16T09:59:01;6.35;;;2.20;;
73599;SDS011;61877;48.246;9.220;2023-07-16T10:01:32;6.60;;;2.35;;
73599;SDS011;61877;48.246;9.220;2023-07-16T10:03:59;6.80;;;2.10;;
73599;SDS011;61877;48.246;9.220;2023-07-16T10:06:41;5.95;;;2.20;;
73599;SDS011;61877;48.246;9.220;2023-07-16T10:09:31;6.35;;;2.30;;
73599;SDS011;61877;48.246;9.220;2023-07-16T10:12:18;6.85;;;2.28;;
73599;SDS011;61877;48.246;9.220;2023-07-16T10:14:46;6.95;;;2.17;;
73599;SDS011;61877;48.246;9.220;2023-07-16T10:17:18;7.33;;;2.33;;
73599;SDS011;61877;48.246;9.220;2023-07-16T10:19:54;7.32;;;2.20;;
73599;SDS011;61877;48.246;9.220;2023-07-16T10:22:36;6.70;;;2.47;;
73599;SDS011;61877;48.246;9.220;2023-07-16T10:25:03;7.70;;;2.50;;
73599;SDS011;61877;48.246;9.220;2023-07-16T10:27:36;6.28;;;2.22;;
73599;SDS011;61877;48.246;9.220;2023-07-16T10:30:07;6.57;;;2.17;;
73599;SDS011;61877;48.246;9.220;2023-07-16T10:32:36;6.10;;;2.50;;
73599;SDS011;61877;48.246;9.220;2023-07-16T10:35:07;6.45;;;2.22;;
73599;SDS011;61877;48.246;9.220;2023-07-16T10:37:39;6.65;;;2.50;;
73599;SDS011;61877;48.246;9.220;2023-07-16T10:40:05;5.75;;;2.00;;
73599;SDS011;61877;48.246;9.220;2023-07-16T10:42:54;5.97;;;2.10;;
73599;SDS011;61877;48.246;9.220;2023-07-16T10:45:20;6.22;;;2.30;;
73599;SDS011;61877;48.246;9.220;2023-07-16T10:47:54;6.80;;;2.50;;
73599;SDS011;61877;48.246;9.220;2023-07-16T10:50:31;6.00;;;2.10;;
73599;SDS011;61877;48.246;9.220;2023-07-16T10:53:00;6.35;;;2.33;;
73599;SDS011;61877;48.246;9.220;2023-07-16T10:55:45;6.03;;;2.30;;
73599;SDS011;61877;48.246;9.220;2023-07-16T10:58:20;5.78;;;2.05;;
73599;SDS011;61877;48.246;9.220;2023-07-16T11:00:48;6.13;;;2.43;;
73599;SDS011;61877;48.246;9.220;2023-07-16T11:03:29;5.50;;;2.03;;
73599;SDS011;61877;48.246;9.220;2023-07-16T11:05:56;5.50;;;2.00;;
73599;SDS011;61877;48.246;9.220;2023-07-16T11:08:28;6.05;;;2.17;;
73599;SDS011;61877;48.246;9.220;2023-07-16T11:10:54;6.15;;;2.25;;
73599;SDS011;61877;48.246;9.220;2023-07-16T11:13:34;7.03;;;2.23;;
73599;SDS011;61877;48.246;9.220;2023-07-16T11:16:08;5.72;;;2.00;;
73599;SDS011;61877;48.246;9.220;2023-07-16T11:18:34;6.35;;;2.30;;
73599;SDS011;61877;48.246;9.220;2023-07-16T11:21:04;6.50;;;2.30;;
73599;SDS011;61877;48.246;9.220;2023-07-16T11:23:34;7.07;;;2.20;;
73599;SDS011;61877;48.246;9.220;2023-07-16T11:26:03;6.50;;;2.40;;
73599;SDS011;61877;48.246;9.220;2023-07-16T11:28:35;5.82;;;2.30;;
73599;SDS011;61877;48.246;9.220;2023-07-16T11:31:09;6.00;;;2.30;;
73599;SDS011;61877;48.246;9.220;2023-07-16T11:33:35;8.35;;;2.60;;
73599;SDS011;61877;48.246;9.220;2023-07-16T11:36:03;7.07;;;2.40;;
73599;SDS011;61877;48.246;9.220;2023-07-16T11:38:35;5.65;;;2.22;;
73599;SDS011;61877;48.246;9.220;2023-07-16T11:41:01;5.70;;;2.10;;
73599;SDS011;61877;48.246;9.220;2023-07-16T11:43:33;6.73;;;2.40;;
73599;SDS011;61877;48.246;9.220;2023-07-16T11:46:13;6.82;;;2.35;;
73599;SDS011;61877;48.246;9.220;2023-07-16T11:48:46;5.70;;;2.17;;
73599;SDS011;61877;48.246;9.220;2023-07-16T11:51:23;6.07;;;2.40;;
73599;SDS011;61877;48.246;9.220;2023-07-16T11:53:49;5.97;;;2.30;;
73599;SDS011;61877;48.246;9.220;2023-07-16T11:56:18;6.00;;;2.30;;
73599;SDS011;61877;48.246;9.220;2023-07-16T11:58:45;7.50;;;2.40;;
73599;SDS011;61877;48.246;9.220;2023-07-16T12:01:13;6.40;;;2.60;;
73599;SDS011;61877;48.246;9.220;2023-07-16T12:03:39;7.30;;;2.40;;
73599;SDS011;61877;48.246;9.220;2023-07-16T12:06:10;6.18;;;2.40;;
73599;SDS011;61877;48.246;9.220;2023-07-16T12:08:37;5.88;;;2.35;;
73599;SDS011;61877;48.246;9.220;2023-07-16T12:11:03;6.45;;;2.40;;
73599;SDS011;61877;48.246;9.220;2023-07-16T12:13:36;5.90;;;2.10;;
73599;SDS011;61877;48.246;9.220;2023-07-16T12:16:02;6.10;;;2.40;;
73599;SDS011;61877;48.246;9.220;2023-07-16T12:18:28;7.20;;;2.28;;
73599;SDS011;61877;48.246;9.220;2023-07-16T12:20:56;5.90;;;2.58;;
73599;SDS011;61877;48.246;9.220;2023-07-16T12:23:28;6.73;;;2.50;;
73599;SDS011;61877;48.246;9.220;2023-07-16T12:26:01;5.82;;;2.42;;
73599;SDS011;61877;48.246;9.220;2023-07-16T12:28:29;6.85;;;2.38;;
73599;SDS011;61877;48.246;9.220;2023-07-16T12:30:57;6.53;;;2.50;;
73599;SDS011;61877;48.246;9.220;2023-07-16T12:33:28;6.78;;;2.47;;
73599;SDS011;61877;48.246;9.220;2023-07-16T12:35:57;6.10;;;2.50;;
73599;SDS011;61877;48.246;9.220;2023-07-16T12:38:25;6.70;;;2.37;;
73599;SDS011;61877;48.246;9.220;2023-07-16T12:40:51;7.07;;;2.40;;
73599;SDS011;61877;48.246;9.220;2023-07-16T12:46:01;5.88;;;2.42;;
73599;SDS011;61877;48.246;9.220;2023-07-16T12:48:53;6.07;;;2.55;;
73599;SDS011;61877;48.246;9.220;2023-07-16T12:51:19;6.50;;;2.20;;
73599;SDS011;61877;48.246;9.220;2023-07-16T12:53:44;6.97;;;2.33;;
73599;SDS011;61877;48.246;9.220;2023-07-16T12:56:10;6.10;;;2.60;;
73599;SDS011;61877;48.246;9.220;2023-07-16T12:58:46;6.72;;;2.55;;
73599;SDS011;61877;48.246;9.220;2023-07-16T13:01:17;6.53;;;2.55;;
73599;SDS011;61877;48.246;9.220;2023-07-16T13:03:44;6.63;;;2.40;;
73599;SDS011;61877;48.246;9.220;2023-07-16T13:06:10;5.80;;;2.55;;
73599;SDS011;61877;48.246;9.220;2023-07-16T13:08:44;6.97;;;2.40;;
73599;SDS011;61877;48.246;9.220;2023-07-16T13:11:10;6.60;;;2.80;;
73599;SDS011;61877;48.246;9.220;2023-07-16T13:13:35;7.60;;;3.10;;
73599;SDS011;61877;48.246;9.220;2023-07-16T13:16:09;6.85;;;2.75;;
73599;SDS011;61877;48.246;9.220;2023-07-16T13:18:34;6.87;;;2.57;;
73599;SDS011;61877;48.246;9.220;2023-07-16T13:21:03;5.97;;;2.50;;
73599;SDS011;61877;48.246;9.220;2023-07-16T13:23:29;6.70;;;2.70;;
73599;SDS011;61877;48.246;9.220;2023-07-16T13:25:55;6.40;;;2.80;;
73599;SDS011;61877;48.246;9.220;2023-07-16T13:28:20;7.33;;;2.70;;
73599;SDS011;61877;48.246;9.220;2023-07-16T13:30:46;6.93;;;2.70;;
73599;SDS011;61877;48.246;9.220;2023-07-16T13:33:26;6.85;;;2.47;;
73599;SDS011;61877;48.246;9.220;2023-07-16T13:35:52;6.15;;;2.70;;
73599;SDS011;61877;48.246;9.220;2023-07-16T13:38:20;7.10;;;2.50;;
73599;SDS011;61877;48.246;9.220;2023-07-16T13:40:46;6.10;;;2.67;;
73599;SDS011;61877;48.246;9.220;2023-07-16T13:43:19;7.75;;;2.83;;
73599;SDS011;61877;48.246;9.220;2023-07-16T13:45:45;8.00;;;2.70;;
73599;SDS011;61877;48.246;9.220;2023-07-16T13:48:13;5.93;;;2.57;;
73599;SDS011;61877;48.246;9.220;2023-07-16T13:50:47;6.10;;;2.60;;
73599;SDS011;61877;48.246;9.220;2023-07-16T13:53:13;5.88;;;2.30;;
73599;SDS011;61877;48.246;9.220;2023-07-16T13:55:46;5.90;;;2.50;;
73599;SDS011;61877;48.246;9.220;2023-07-16T14:01:01;6.45;;;2.70;;
73599;SDS011;61877;48.246;9.220;2023-07-16T14:03:34;6.57;;;2.85;;
73599;SDS011;61877;48.246;9.220;2023-07-16T14:06:06;6.53;;;3.10;;
73599;SDS011;61877;48.246;9.220;2023-07-16T14:08:31;6.53;;;2.83;;
73599;SDS011;61877;48.246;9.220;2023-07-16T14:10:57;7.37;;;2.60;;
73599;SDS011;61877;48.246;9.220;2023-07-16T14:13:28;8.07;;;2.80;;
73599;SDS011;61877;48.246;9.220;2023-07-16T14:15:57;7.22;;;2.83;;
73599;SDS011;61877;48.246;9.220;2023-07-16T14:18:22;6.90;;;2.87;;
73599;SDS011;61877;48.246;9.220;2023-07-16T14:21:00;6.32;;;2.95;;
73599;SDS011;61877;48.246;9.220;2023-07-16T14:23:37;7.30;;;2.80;;
73599;SDS011;61877;48.246;9.220;2023-07-16T14:26:03;6.25;;;3.10;;
73599;SDS011;61877;48.246;9.220;2023-07-16T14:28:29;6.32;;;3.00;;
73599;SDS011;61877;48.246;9.220;2023-07-16T14:30:55;10.23;;;3.20;;
73599;SDS011;61877;48.246;9.220;2023-07-16T14:33:23;7.10;;;3.00;;
73599;SDS011;61877;48.246;9.220;2023-07-16T14:35:50;6.53;;;3.20;;
73599;SDS011;61877;48.246;9.220;2023-07-16T14:38:15;7.13;;;2.70;;
73599;SDS011;61877;48.246;9.220;2023-07-16T14:40:50;6.35;;;2.92;;
73599;SDS011;61877;48.246;9.220;2023-07-16T14:43:22;6.80;;;2.83;;
73599;SDS011;61877;48.246;9.220;2023-07-16T14:45:47;6.75;;;2.85;;
73599;SDS011;61877;48.246;9.220;2023-07-16T14:48:13;6.87;;;2.63;;
73599;SDS011;61877;48.246;9.220;2023-07-16T14:50:51;6.90;;;2.75;;
73599;SDS011;61877;48.246;9.220;2023-07-16T14:53:20;6.32;;;2.78;;
73599;SDS011;61877;48.246;9.220;2023-07-16T14:55:46;6.43;;;2.90;;
73599;SDS011;61877;48.246;9.220;2023-07-16T14:58:12;6.00;;;2.73;;
73599;SDS011;61877;48.246;9.220;2023-07-16T15:00:44;6.53;;;2.80;;
73599;SDS011;61877;48.246;9.220;2023-07-16T15:03:12;6.30;;;2.65;;
73599;SDS011;61877;48.246;9.220;2023-07-16T15:05:40;6.53;;;2.53;;